Time;durP1;ratioP1;P1;durP2;ratioP2;P2;SDS_P1;SDS_P2;PMS_P1;PMS_P2;Temp;Humidity;BMP_temperature;BMP_pressure;BME280_temperature;BME280_humidity;BME280_pressure;Samples;Min_cycle;Max_cycle;Signal;HPM_P1;HPM_P2
2023/11/04 00:01:20;;;;;;;0.80;0.40;;;6.80;16.80;;;;;;5112292;28;20443;-60
2023/11/04 00:03:48;;;;;;;1.20;0.40;;;6.90;1.00;;;;;;5111699;28;20694;-60
2023/11/04 00:06:15;;;;;;;0.70;0.40;;;6.90;99.90;;;;;;5112324;28;20486;-60
2023/11/04 00:08:42;;;;;;;0.70;0.30;;;6.90;99.90;;;;;;5111417;28;20423;-61
2023/11/04 00:11:09;;;;;;;1.08;0.35;;;6.90;99.90;;;;;;5112170;28;20412;-60
2023/11/04 00:13:37;;;;;;;0.70;0.40;;;6.70;99.90;;;;;;5112610;28;20420;-60
2023/11/04 00:16:08;;;;;;;0.70;0.40;;;6.60;99.90;;;;;;5111523;28;20428;-59
2023/11/04 00:18:35;;;;;;;0.60;0.40;;;6.70;99.90;;;;;;5111411;28;20454;-60
2023/11/04 00:21:03;;;;;;;0.50;0.30;;;6.50;99.90;;;;;;5111609;28;20431;-58
2023/11/04 00:23:30;;;;;;;0.70;0.40;;;6.40;99.90;;;;;;5111595;28;20528;-59
2023/11/04 00:25:57;;;;;;;0.80;0.40;;;6.40;99.90;;;;;;5112059;28;20874;-58
2023/11/04 00:28:24;;;;;;;0.80;0.30;;;6.70;1.00;;;;;;5111779;28;20420;-60
2023/11/04 00:30:53;;;;;;;0.70;0.38;;;6.60;99.90;;;;;;5111565;28;20420;-60
2023/11/04 00:33:20;;;;;;;0.60;0.40;;;6.40;99.90;;;;;;5111739;28;20412;-60
2023/11/04 00:35:47;;;;;;;0.75;0.40;;;6.50;1.00;;;;;;5111227;28;20420;-59
2023/11/04 00:38:14;;;;;;;0.60;0.40;;;6.40;99.90;;;;;;5111446;28;20505;-59
2023/11/04 00:40:41;;;;;;;0.90;0.30;;;6.40;99.90;;;;;;5110920;28;20424;-59
2023/11/04 00:43:08;;;;;;;1.20;0.40;;;6.40;99.90;;;;;;5112199;28;20424;-59
2023/11/04 00:45:36;;;;;;;1.00;0.40;;;6.50;99.90;;;;;;5112154;28;20701;-60
2023/11/04 00:48:04;;;;;;;0.80;0.40;;;6.60;1.00;;;;;;5111956;28;20452;-58
2023/11/04 00:50:31;;;;;;;1.40;0.40;;;6.50;99.90;;;;;;5111028;28;20716;-60
2023/11/04 00:52:58;;;;;;;0.70;0.40;;;6.40;99.90;;;;;;5110935;28;20566;-60
2023/11/04 00:55:25;;;;;;;0.65;0.30;;;6.40;99.90;;;;;;5111320;28;20502;-59
2023/11/04 00:57:53;;;;;;;1.70;0.30;;;6.40;99.90;;;;;;5111054;28;20424;-59
2023/11/04 01:00:25;;;;;;;0.60;0.40;;;6.30;99.90;;;;;;5109392;28;20415;-59
2023/11/04 01:02:54;;;;;;;0.70;0.40;;;6.20;1.00;;;;;;5110660;28;20789;-59
2023/11/04 01:05:23;;;;;;;1.00;0.40;;;6.30;1.00;;;;;;5111593;28;20853;-59
2023/11/04 01:07:50;;;;;;;1.00;0.40;;;6.30;1.00;;;;;;5111477;28;20481;-60
2023/11/04 01:10:17;;;;;;;0.60;0.40;;;6.30;1.00;;;;;;5114357;28;20431;-59
2023/11/04 01:12:44;;;;;;;1.00;0.40;;;6.40;1.00;;;;;;5115273;28;20408;-60
2023/11/04 01:15:12;;;;;;;1.10;0.50;;;6.60;1.00;;;;;;5115237;28;20420;-59
2023/11/04 01:17:39;;;;;;;0.70;0.40;;;6.50;99.90;;;;;;5115305;28;20728;-59
2023/11/04 01:20:08;;;;;;;0.88;0.40;;;6.40;99.90;;;;;;5115616;28;20484;-60
2023/11/04 01:22:37;;;;;;;1.00;0.40;;;6.30;99.90;;;;;;5114992;28;20439;-59
2023/11/04 01:25:05;;;;;;;0.90;0.40;;;6.40;99.90;;;;;;5114039;28;20718;-59
2023/11/04 01:27:32;;;;;;;1.30;0.40;;;6.50;99.90;;;;;;5113464;28;20439;-59
2023/11/04 01:29:59;;;;;;;1.30;0.40;;;6.50;99.90;;;;;;5111592;28;20419;-59
2023/11/04 01:32:26;;;;;;;1.08;0.40;;;6.50;99.90;;;;;;5111040;28;20472;-59
2023/11/04 01:34:53;;;;;;;0.90;0.40;;;6.40;99.90;;;;;;5112633;28;20435;-60
2023/11/04 01:37:25;;;;;;;0.65;0.40;;;6.40;99.90;;;;;;5113604;28;20638;-60
2023/11/04 01:39:53;;;;;;;0.60;0.32;;;6.50;99.90;;;;;;5114483;28;20424;-59
2023/11/04 01:42:20;;;;;;;0.98;0.50;;;6.50;99.90;;;;;;5114504;28;20427;-59
2023/11/04 01:44:47;;;;;;;1.00;0.43;;;6.40;99.90;;;;;;5113707;28;20420;-60
2023/11/04 01:47:15;;;;;;;0.70;0.40;;;6.40;6.70;;;;;;5114110;28;20427;-60
2023/11/04 01:49:42;;;;;;;0.70;0.50;;;6.50;1.00;;;;;;5114573;28;20721;-59
2023/11/04 01:52:10;;;;;;;1.50;0.40;;;6.60;1.00;;;;;;5113700;28;20721;-59
2023/11/04 01:54:38;;;;;;;0.80;0.50;;;6.70;1.00;;;;;;5114944;28;20479;-60
2023/11/04 01:57:07;;;;;;;0.80;0.40;;;6.60;99.90;;;;;;5114551;28;20616;-60
2023/11/04 01:59:35;;;;;;;0.80;0.40;;;6.50;99.90;;;;;;5113737;28;20687;-60
2023/11/04 02:02:03;;;;;;;1.40;0.40;;;6.50;99.90;;;;;;5114081;28;20435;-60
2023/11/04 02:04:31;;;;;;;0.70;0.40;;;6.50;99.90;;;;;;5114750;28;20847;-60
2023/11/04 02:06:58;;;;;;;1.00;0.40;;;6.40;99.90;;;;;;5114455;28;20435;-60
2023/11/04 02:09:25;;;;;;;0.80;0.40;;;6.50;99.90;;;;;;5114060;28;20703;-60
2023/11/04 02:11:53;;;;;;;0.70;0.35;;;6.50;99.90;;;;;;5114548;28;20412;-60
2023/11/04 02:14:22;;;;;;;0.70;0.40;;;6.40;99.90;;;;;;5114197;28;20477;-60
2023/11/04 02:16:49;;;;;;;0.70;0.40;;;6.40;99.90;;;;;;5113483;28;20731;-60
2023/11/04 02:19:16;;;;;;;0.68;0.40;;;6.30;99.90;;;;;;5112647;28;20473;-59
2023/11/04 02:21:44;;;;;;;0.70;0.40;;;6.20;99.90;;;;;;5113116;28;20891;-59
2023/11/04 02:24:12;;;;;;;0.80;0.40;;;6.20;99.90;;;;;;5114829;28;20724;-59
2023/11/04 02:26:39;;;;;;;0.70;0.40;;;6.10;99.90;;;;;;5114699;28;20428;-59
2023/11/04 02:29:07;;;;;;;0.60;0.30;;;6.10;99.90;;;;;;5115047;28;20827;-59
2023/11/04 02:31:34;;;;;;;0.70;0.40;;;6.10;1.00;;;;;;5114521;28;20424;-59
2023/11/04 02:34:01;;;;;;;0.70;0.40;;;6.10;1.00;;;;;;5113658;28;20419;-59
2023/11/04 02:36:28;;;;;;;0.98;0.32;;;6.10;1.00;;;;;;5114141;28;20862;-58
2023/11/04 02:38:57;;;;;;;1.15;0.40;;;6.20;1.00;;;;;;5112455;28;20735;-59
2023/11/04 02:41:24;;;;;;;0.70;0.40;;;6.20;1.00;;;;;;5114296;28;20450;-59
2023/11/04 02:43:51;;;;;;;0.70;0.30;;;6.20;99.90;;;;;;5114734;28;20451;-59
2023/11/04 02:46:18;;;;;;;0.70;0.30;;;6.20;99.90;;;;;;5114650;28;20416;-58
2023/11/04 02:48:45;;;;;;;0.70;0.30;;;6.20;99.90;;;;;;5113261;28;20835;-59
2023/11/04 02:51:12;;;;;;;1.10;0.30;;;6.30;1.00;;;;;;5113979;28;20412;-59
2023/11/04 02:53:39;;;;;;;0.80;0.30;;;6.40;1.00;;;;;;5114123;28;20583;-59
2023/11/04 02:56:09;;;;;;;0.50;0.30;;;6.30;99.90;;;;;;5114077;28;20537;-59
2023/11/04 02:58:36;;;;;;;0.70;0.30;;;6.10;99.90;;;;;;5113657;28;20431;-59
2023/11/04 03:01:04;;;;;;;0.50;0.30;;;6.10;99.90;;;;;;5113495;28;20431;-59
2023/11/04 03:03:31;;;;;;;1.58;0.40;;;6.10;99.90;;;;;;5113896;28;20766;-59
2023/11/04 03:05:59;;;;;;;0.60;0.30;;;6.10;1.00;;;;;;5114148;28;20416;-59
2023/11/04 03:08:26;;;;;;;0.60;0.32;;;6.10;1.00;;;;;;5114206;28;20863;-59
2023/11/04 03:10:53;;;;;;;0.70;0.40;;;6.10;10.40;;;;;;5114531;28;20423;-59
2023/11/04 03:13:22;;;;;;;0.70;0.30;;;6.10;1.00;;;;;;5113250;28;20507;-59
2023/11/04 03:15:49;;;;;;;1.00;0.40;;;6.00;1.00;;;;;;5111882;28;20815;-59
2023/11/04 03:18:16;;;;;;;0.60;0.30;;;6.00;1.90;;;;;;5112362;28;20447;-58
2023/11/04 03:20:44;;;;;;;0.60;0.30;;;5.90;2.30;;;;;;5112486;28;20424;-58
2023/11/04 03:23:11;;;;;;;0.50;0.30;;;6.00;16.00;;;;;;5112672;28;20438;-58
2023/11/04 03:25:38;;;;;;;0.60;0.30;;;6.10;28.50;;;;;;5111844;28;20455;-58
2023/11/04 03:28:05;;;;;;;0.50;0.25;;;6.30;24.20;;;;;;5112180;28;20420;-58
2023/11/04 03:30:34;;;;;;;0.70;0.30;;;6.50;1.00;;;;;;5112883;28;20412;-57
2023/11/04 03:33:02;;;;;;;0.50;0.23;;;6.50;1.00;;;;;;5112537;28;20415;-59
2023/11/04 03:35:29;;;;;;;0.60;0.30;;;6.50;1.00;;;;;;5115175;28;20440;-58
2023/11/04 03:37:56;;;;;;;0.50;0.30;;;6.30;1.00;;;;;;5115037;28;20423;-58
2023/11/04 03:40:23;;;;;;;1.40;0.30;;;6.20;1.00;;;;;;5115074;28;20443;-58
2023/11/04 03:42:50;;;;;;;0.50;0.30;;;6.10;1.00;;;;;;5114725;28;20440;-58
2023/11/04 03:45:18;;;;;;;0.50;0.22;;;6.10;6.90;;;;;;5114260;28;20416;-59
2023/11/04 03:47:47;;;;;;;1.80;0.30;;;6.30;8.70;;;;;;5113604;28;20443;-59
2023/11/04 03:50:14;;;;;;;0.70;0.30;;;6.30;1.00;;;;;;5113398;28;20425;-58
2023/11/04 03:52:41;;;;;;;0.50;0.30;;;6.50;1.00;;;;;;5113220;28;20416;-59
2023/11/04 03:55:09;;;;;;;0.50;0.20;;;6.50;1.00;;;;;;5113591;28;20424;-58
2023/11/04 03:57:36;;;;;;;0.50;0.30;;;6.60;1.00;;;;;;5113287;28;20442;-59
2023/11/04 04:00:03;;;;;;;0.70;0.30;;;6.80;1.00;;;;;;5113608;28;20412;-58
2023/11/04 04:02:30;;;;;;;0.93;0.20;;;6.80;99.90;;;;;;5114004;28;20870;-58
2023/11/04 04:04:59;;;;;;;0.80;0.30;;;6.80;99.90;;;;;;5113981;28;20427;-59
2023/11/04 04:07:26;;;;;;;0.60;0.30;;;6.80;99.90;;;;;;5113713;28;20427;-58
2023/11/04 04:09:53;;;;;;;0.52;0.30;;;6.80;99.90;;;;;;5113420;28;20412;-59
2023/11/04 04:12:20;;;;;;;1.00;0.30;;;6.80;99.90;;;;;;5113848;28;20507;-59
2023/11/04 04:14:47;;;;;;;0.60;0.20;;;6.70;99.90;;;;;;5113167;28;20426;-58
2023/11/04 04:17:14;;;;;;;0.80;0.30;;;6.80;99.90;;;;;;5113496;28;20438;-59
2023/11/04 04:19:41;;;;;;;0.60;0.25;;;6.70;99.90;;;;;;5112950;28;20723;-59
2023/11/04 04:22:10;;;;;;;0.50;0.20;;;6.70;99.90;;;;;;5113104;28;20424;-59
2023/11/04 04:24:39;;;;;;;0.43;0.30;;;6.60;99.90;;;;;;5113151;28;20410;-59
2023/11/04 04:27:06;;;;;;;0.40;0.20;;;6.50;99.90;;;;;;5113877;28;20859;-59
2023/11/04 04:29:33;;;;;;;0.40;0.20;;;6.40;99.90;;;;;;5113638;28;20530;-59
2023/11/04 04:32:00;;;;;;;0.50;0.20;;;6.40;99.90;;;;;;5113054;28;20420;-59
2023/11/04 04:34:28;;;;;;;0.50;0.20;;;6.50;99.90;;;;;;5113181;28;20424;-59
2023/11/04 04:36:57;;;;;;;0.60;0.20;;;6.60;99.90;;;;;;5113783;28;20484;-59
2023/11/04 04:39:26;;;;;;;0.50;0.20;;;6.40;99.90;;;;;;5112847;28;20473;-58
2023/11/04 04:41:53;;;;;;;0.40;0.20;;;6.50;99.90;;;;;;5113937;28;20996;-59
2023/11/04 04:44:20;;;;;;;0.40;0.20;;;6.30;99.90;;;;;;5114385;28;20610;-59
2023/11/04 04:46:47;;;;;;;0.55;0.30;;;6.20;99.90;;;;;;5116798;28;20416;-59
2023/11/04 04:49:14;;;;;;;0.43;0.22;;;6.10;99.90;;;;;;5117616;28;20420;-59
2023/11/04 04:51:41;;;;;;;0.43;0.30;;;6.10;1.00;;;;;;5117507;28;20416;-59
2023/11/04 04:54:09;;;;;;;0.60;0.30;;;6.00;99.90;;;;;;5117115;28;20438;-59
2023/11/04 04:56:37;;;;;;;0.50;0.28;;;5.90;99.90;;;;;;5117404;28;20454;-59
2023/11/04 04:59:05;;;;;;;0.50;0.30;;;6.00;17.00;;;;;;5116736;28;20427;-59
2023/11/04 05:01:32;;;;;;;0.40;0.20;;;6.00;1.00;;;;;;5116568;28;20501;-59
2023/11/04 05:03:59;;;;;;;0.40;0.20;;;6.10;1.00;;;;;;5116717;28;20439;-59
2023/11/04 05:06:26;;;;;;;0.50;0.30;;;6.30;1.00;;;;;;5117305;28;20412;-59
2023/11/04 05:08:54;;;;;;;0.40;0.22;;;6.40;1.00;;;;;;5117159;28;20800;-59
2023/11/04 05:11:21;;;;;;;2.20;0.30;;;6.50;99.90;;;;;;5117654;28;20480;-59
2023/11/04 05:13:50;;;;;;;0.70;0.25;;;6.40;99.90;;;;;;5116586;28;20423;-59
2023/11/04 05:16:17;;;;;;;0.50;0.30;;;6.10;99.90;;;;;;5115463;28;20560;-59
2023/11/04 05:18:45;;;;;;;0.82;0.30;;;6.10;11.50;;;;;;5114352;28;20520;-59
2023/11/04 05:21:12;;;;;;;0.50;0.20;;;6.30;2.50;;;;;;5113729;28;20418;-58
2023/11/04 05:23:39;;;;;;;0.80;0.30;;;6.30;39.50;;;;;;5113955;28;20890;-59
2023/11/04 05:26:06;;;;;;;0.50;0.30;;;6.30;1.00;;;;;;5114940;28;20432;-59
2023/11/04 05:28:33;;;;;;;1.00;0.25;;;6.40;1.00;;;;;;5114155;28;20866;-59
2023/11/04 05:31:02;;;;;;;1.50;0.30;;;6.50;1.00;;;;;;5114366;28;20415;-59
2023/11/04 05:33:29;;;;;;;0.50;0.20;;;6.30;99.90;;;;;;5115217;28;20408;-58
2023/11/04 05:35:56;;;;;;;0.70;0.20;;;6.40;99.90;;;;;;5114457;28;20412;-59
2023/11/04 05:38:27;;;;;;;0.50;0.30;;;6.40;99.90;;;;;;5114417;28;20434;-59
2023/11/04 05:40:54;;;;;;;0.40;0.30;;;6.40;99.90;;;;;;5114176;28;20519;-59
2023/11/04 05:43:21;;;;;;;0.53;0.20;;;6.40;99.90;;;;;;5114933;28;20428;-59
2023/11/04 05:45:49;;;;;;;0.57;0.30;;;6.30;99.90;;;;;;5114055;28;20412;-59
2023/11/04 05:48:18;;;;;;;0.60;0.20;;;6.30;99.90;;;;;;5114752;28;20424;-60
2023/11/04 05:50:46;;;;;;;0.50;0.30;;;6.40;1.00;;;;;;5114391;28;20420;-59
2023/11/04 05:53:13;;;;;;;0.50;0.30;;;6.50;99.90;;;;;;5113746;28;20420;-59
2023/11/04 05:55:40;;;;;;;0.50;0.20;;;6.60;99.90;;;;;;5113529;28;20898;-60
2023/11/04 05:58:08;;;;;;;0.60;0.20;;;6.50;99.90;;;;;;5114988;28;20430;-59
2023/11/04 06:00:36;;;;;;;0.60;0.20;;;6.40;99.90;;;;;;5114794;28;21020;-60
2023/11/04 06:03:03;;;;;;;0.50;0.30;;;6.30;99.90;;;;;;5114666;28;20840;-59
2023/11/04 06:05:32;;;;;;;0.80;0.20;;;6.10;1.00;;;;;;5114433;28;20477;-59
2023/11/04 06:07:59;;;;;;;0.50;0.20;;;6.10;8.30;;;;;;5113282;28;20421;-59
2023/11/04 06:10:26;;;;;;;0.40;0.20;;;6.10;1.00;;;;;;5114893;28;20781;-59
2023/11/04 06:12:54;;;;;;;0.60;0.20;;;6.10;18.70;;;;;;5113226;28;20474;-59
2023/11/04 06:15:21;;;;;;;0.60;0.30;;;6.30;18.10;;;;;;5113522;28;20422;-59
2023/11/04 06:17:48;;;;;;;0.50;0.20;;;6.40;1.00;;;;;;5114517;28;20423;-59
2023/11/04 06:20:15;;;;;;;0.50;0.20;;;6.40;1.00;;;;;;5113186;28;20858;-59
2023/11/04 06:22:43;;;;;;;0.50;0.20;;;6.40;99.90;;;;;;5113587;28;20431;-59
2023/11/04 06:25:11;;;;;;;0.50;0.30;;;6.50;1.00;;;;;;5114070;28;20420;-59
2023/11/04 06:27:38;;;;;;;0.80;0.22;;;6.30;99.90;;;;;;5114588;28;20471;-59
2023/11/04 06:30:06;;;;;;;0.40;0.20;;;6.30;99.90;;;;;;5114995;28;20715;-59
2023/11/04 06:32:34;;;;;;;1.40;0.20;;;6.40;1.00;;;;;;5114408;28;20622;-58
2023/11/04 06:35:01;;;;;;;0.50;0.20;;;6.60;2.80;;;;;;5112880;28;20424;-59
2023/11/04 06:37:28;;;;;;;0.75;0.20;;;6.90;99.90;;;;;;5113664;28;20716;-59
2023/11/04 06:39:57;;;;;;;0.45;0.20;;;6.80;99.90;;;;;;5113899;28;20427;-58
2023/11/04 06:42:26;;;;;;;0.50;0.20;;;6.80;99.90;;;;;;5112404;28;20769;-59
2023/11/04 06:44:54;;;;;;;0.50;0.22;;;6.70;99.90;;;;;;5112941;28;20412;-59
2023/11/04 06:47:23;;;;;;;1.33;0.20;;;6.70;99.90;;;;;;5113111;28;20428;-59
2023/11/04 06:49:50;;;;;;;0.43;0.30;;;6.70;99.90;;;;;;5113131;28;20452;-59
2023/11/04 06:52:17;;;;;;;0.40;0.20;;;6.70;99.90;;;;;;5113154;28;20420;-59
2023/11/04 06:54:45;;;;;;;0.45;0.20;;;6.60;99.90;;;;;;5112011;28;20556;-59
2023/11/04 06:57:18;;;;;;;0.60;0.22;;;6.50;99.90;;;;;;5127803;27;20753;-59
2023/11/04 06:59:45;;;;;;;1.50;0.20;;;6.60;99.90;;;;;;5130134;27;20430;-59
2023/11/04 07:02:13;;;;;;;0.50;0.20;;;6.60;99.90;;;;;;5129345;27;20804;-58
2023/11/04 07:04:41;;;;;;;0.40;0.20;;;6.60;99.90;;;;;;5132378;27;20905;-60
2023/11/04 07:07:09;;;;;;;0.52;0.20;;;6.70;99.90;;;;;;5131844;27;20508;-57
2023/11/04 07:09:36;;;;;;;0.63;0.20;;;6.60;99.90;;;;;;5110575;28;20404;-59
2023/11/04 07:12:04;;;;;;;0.85;0.20;;;6.50;99.90;;;;;;5119465;27;20430;-61
2023/11/04 07:14:33;;;;;;;1.10;0.20;;;6.50;99.90;;;;;;5131271;27;20828;-57
2023/11/04 07:17:00;;;;;;;0.50;0.20;;;6.40;99.90;;;;;;5120208;27;20447;-58
2023/11/04 07:19:27;;;;;;;0.40;0.20;;;6.40;99.90;;;;;;5127193;27;20431;-58
2023/11/04 07:21:54;;;;;;;0.50;0.20;;;6.40;99.90;;;;;;5123623;27;20888;-58
2023/11/04 07:24:22;;;;;;;0.50;0.20;;;6.30;99.90;;;;;;5132115;27;20853;-57
2023/11/04 07:26:49;;;;;;;0.40;0.20;;;6.40;99.90;;;;;;5129791;27;20434;-58
2023/11/04 07:29:17;;;;;;;0.38;0.20;;;6.50;99.90;;;;;;5130505;27;20426;-58
2023/11/04 07:31:47;;;;;;;0.60;0.20;;;6.50;99.90;;;;;;5127394;27;20427;-59
2023/11/04 07:34:14;;;;;;;0.90;0.20;;;6.60;99.90;;;;;;5125870;27;20437;-59
2023/11/04 07:36:41;;;;;;;0.40;0.20;;;6.70;99.90;;;;;;5128064;27;20847;-59
2023/11/04 07:39:09;;;;;;;0.50;0.30;;;6.90;99.90;;;;;;5129692;27;20454;-60
2023/11/04 07:41:41;;;;;;;0.45;0.20;;;7.20;99.90;;;;;;5128722;27;20528;-60
2023/11/04 07:44:09;;;;;;;0.30;0.20;;;7.30;99.90;;;;;;5126349;27;20443;-59
2023/11/04 07:46:36;;;;;;;0.70;0.20;;;7.20;99.90;;;;;;5127899;27;20865;-60
2023/11/04 07:49:05;;;;;;;0.40;0.20;;;7.20;99.90;;;;;;5119498;27;20436;-60
2023/11/04 07:51:32;;;;;;;0.50;0.20;;;7.30;99.90;;;;;;5126072;27;20815;-60
2023/11/04 07:53:59;;;;;;;0.50;0.20;;;7.40;99.90;;;;;;5128657;27;20434;-59
2023/11/04 07:56:27;;;;;;;0.50;0.20;;;7.50;99.90;;;;;;5128251;27;20441;-60
2023/11/04 07:58:54;;;;;;;1.70;0.30;;;7.40;99.90;;;;;;5132168;27;20954;-60
2023/11/04 08:01:21;;;;;;;0.40;0.20;;;7.40;99.90;;;;;;5129774;27;20593;-60
2023/11/04 08:03:49;;;;;;;0.40;0.20;;;7.30;99.90;;;;;;5131672;27;20454;-59
2023/11/04 08:06:18;;;;;;;0.50;0.30;;;7.30;99.90;;;;;;5129534;27;20520;-59
2023/11/04 08:08:45;;;;;;;1.00;0.30;;;7.30;99.90;;;;;;5131524;27;20846;-59
2023/11/04 08:11:15;;;;;;;0.52;0.30;;;7.40;99.90;;;;;;5130236;27;20434;-59
2023/11/04 08:13:42;;;;;;;0.50;0.30;;;7.40;99.90;;;;;;5131907;27;20426;-61
2023/11/04 08:16:10;;;;;;;0.40;0.25;;;7.40;99.90;;;;;;5128702;27;20523;-60
2023/11/04 08:18:37;;;;;;;0.50;0.20;;;7.50;99.90;;;;;;5129853;27;20487;-60
2023/11/04 08:21:05;;;;;;;0.68;0.20;;;7.80;99.90;;;;;;5131323;27;20549;-60
2023/11/04 08:23:34;;;;;;;0.60;0.30;;;8.10;99.90;;;;;;5116150;27;20468;-60
2023/11/04 08:26:01;;;;;;;0.50;0.30;;;8.10;99.90;;;;;;5126685;28;20433;-60
2023/11/04 08:28:29;;;;;;;0.50;0.30;;;8.10;99.90;;;;;;5132212;27;20841;-60
2023/11/04 08:30:57;;;;;;;0.50;0.30;;;8.10;99.90;;;;;;5130998;27;20424;-60
2023/11/04 08:33:25;;;;;;;0.50;0.30;;;8.00;99.90;;;;;;5131304;27;20418;-60
2023/11/04 08:35:52;;;;;;;0.50;0.30;;;7.90;99.90;;;;;;5109624;27;20856;-60
2023/11/04 08:38:19;;;;;;;0.40;0.30;;;8.00;99.90;;;;;;5124951;28;20426;-60
2023/11/04 08:40:48;;;;;;;0.50;0.20;;;8.00;99.90;;;;;;5127033;27;20441;-60
2023/11/04 08:43:15;;;;;;;0.40;0.20;;;8.10;99.90;;;;;;5128102;28;20422;-60
2023/11/04 08:45:42;;;;;;;0.47;0.20;;;8.10;99.90;;;;;;5114823;27;20433;-61
2023/11/04 08:48:10;;;;;;;0.60;0.30;;;8.30;99.90;;;;;;5128886;27;20422;-60
2023/11/04 08:50:38;;;;;;;0.50;0.25;;;8.40;99.90;;;;;;5129970;27;20441;-59
2023/11/04 08:53:05;;;;;;;0.50;0.27;;;8.50;99.90;;;;;;5129496;27;20465;-60
2023/11/04 08:55:32;;;;;;;0.75;0.25;;;8.60;99.90;;;;;;5127492;27;20721;-60
2023/11/04 08:58:01;;;;;;;1.13;0.20;;;8.80;99.90;;;;;;5126650;27;20473;-59
2023/11/04 09:00:29;;;;;;;0.80;0.30;;;9.10;99.90;;;;;;5126993;27;20547;-59
2023/11/04 09:02:56;;;;;;;0.50;0.20;;;9.20;99.90;;;;;;5128535;27;21121;-60
2023/11/04 09:05:24;;;;;;;0.40;0.20;;;9.20;99.90;;;;;;5128267;27;20490;-60
2023/11/04 09:07:52;;;;;;;1.40;0.20;;;9.20;99.90;;;;;;5128902;27;20504;-58
2023/11/04 09:10:23;;;;;;;0.60;0.20;;;9.30;99.90;;;;;;5129465;27;20430;-58
2023/11/04 09:12:50;;;;;;;0.40;0.20;;;9.30;99.90;;;;;;5123874;27;20538;-59
2023/11/04 09:15:19;;;;;;;0.77;0.20;;;9.40;99.90;;;;;;5128935;27;20991;-58
2023/11/04 09:17:46;;;;;;;0.60;0.30;;;9.40;99.90;;;;;;5126362;27;20462;-59
2023/11/04 09:20:15;;;;;;;0.70;0.20;;;9.40;99.90;;;;;;5127773;28;20432;-59
2023/11/04 09:22:43;;;;;;;0.40;0.20;;;9.50;99.90;;;;;;5128045;27;20877;-60
2023/11/04 09:25:10;;;;;;;0.60;0.20;;;9.50;99.90;;;;;;5127783;27;20430;-60
2023/11/04 09:27:37;;;;;;;0.50;0.20;;;9.50;99.90;;;;;;5128958;27;20434;-60
2023/11/04 09:30:07;;;;;;;0.40;0.20;;;9.50;99.90;;;;;;5128229;27;20597;-60
2023/11/04 09:32:35;;;;;;;0.50;0.20;;;9.50;99.90;;;;;;5130958;27;20445;-59
2023/11/04 09:35:03;;;;;;;0.40;0.20;;;9.60;99.90;;;;;;5129236;27;20430;-59
2023/11/04 09:37:30;;;;;;;0.50;0.20;;;9.70;99.90;;;;;;5126370;27;20430;-60
2023/11/04 09:39:58;;;;;;;0.50;0.22;;;9.60;99.90;;;;;;5126432;27;20410;-61
2023/11/04 09:42:28;;;;;;;0.40;0.20;;;9.60;99.90;;;;;;5125874;27;20804;-60
2023/11/04 09:44:56;;;;;;;0.43;0.20;;;9.60;99.90;;;;;;5131063;27;20430;-60
2023/11/04 09:47:23;;;;;;;0.70;0.20;;;9.60;99.90;;;;;;5129470;27;20435;-61
2023/11/04 09:49:52;;;;;;;0.50;0.30;;;9.60;99.90;;;;;;5128972;27;20476;-60
2023/11/04 09:52:20;;;;;;;0.40;0.20;;;9.70;99.90;;;;;;5131655;27;20430;-60
2023/11/04 09:54:51;;;;;;;0.40;0.20;;;9.80;99.90;;;;;;5129440;27;20932;-61
2023/11/04 09:57:23;;;;;;;0.52;0.30;;;10.00;99.90;;;;;;5119850;27;20429;-60
2023/11/04 09:59:52;;;;;;;0.50;0.20;;;10.10;99.90;;;;;;5126038;27;20434;-60
2023/11/04 10:02:19;;;;;;;0.40;0.20;;;10.30;99.90;;;;;;5124265;27;20438;-60
2023/11/04 10:04:47;;;;;;;0.40;0.20;;;10.50;99.90;;;;;;5129797;27;20482;-58
2023/11/04 10:07:15;;;;;;;0.50;0.20;;;10.60;99.90;;;;;;5127400;27;20434;-56
2023/11/04 10:09:43;;;;;;;0.40;0.20;;;10.80;99.90;;;;;;5133366;27;20852;-58
2023/11/04 10:12:12;;;;;;;0.40;0.20;;;10.90;99.90;;;;;;5127340;27;20423;-58
2023/11/04 10:14:39;;;;;;;0.50;0.20;;;11.10;99.90;;;;;;5132083;27;20434;-57
2023/11/04 10:17:07;;;;;;;0.40;0.20;;;11.20;99.90;;;;;;5125119;27;20536;-57
2023/11/04 10:19:34;;;;;;;0.80;0.20;;;11.20;99.90;;;;;;5129672;27;20687;-63
2023/11/04 10:22:03;;;;;;;0.40;0.20;;;11.10;99.90;;;;;;5126962;27;20436;-56
2023/11/04 10:24:31;;;;;;;0.90;0.20;;;11.20;99.90;;;;;;5127200;27;20864;-60
2023/11/04 10:26:59;;;;;;;0.40;0.20;;;11.20;99.90;;;;;;5126561;27;20787;-62
2023/11/04 10:29:26;;;;;;;0.40;0.20;;;11.20;99.90;;;;;;5130726;27;20806;-60
2023/11/04 10:31:56;;;;;;;0.40;0.20;;;11.30;99.90;;;;;;5128190;27;20526;-60
2023/11/04 10:34:28;;;;;;;0.30;0.20;;;11.30;99.90;;;;;;5131971;27;20429;-60
2023/11/04 10:37:01;;;;;;;0.90;0.20;;;11.20;99.90;;;;;;5127324;27;20480;-59
2023/11/04 10:39:33;;;;;;;0.30;0.20;;;11.20;99.90;;;;;;5124872;27;20410;-59
2023/11/04 10:42:07;;;;;;;0.40;0.20;;;11.20;99.90;;;;;;5122717;27;21073;-62
2023/11/04 10:44:37;;;;;;;0.30;0.20;;;11.10;99.90;;;;;;5128119;27;20431;-60
2023/11/04 10:47:17;;;;;;;0.50;0.20;;;10.90;99.90;;;;;;5125790;27;20892;-60
2023/11/04 10:49:51;;;;;;;0.40;0.20;;;10.90;99.90;;;;;;5126013;27;20442;-60
2023/11/04 10:52:20;;;;;;;0.50;0.20;;;10.90;99.90;;;;;;5125223;27;20433;-60
2023/11/04 10:54:54;;;;;;;0.40;0.20;;;11.00;99.90;;;;;;5128383;27;20414;-60
2023/11/04 10:57:29;;;;;;;0.80;0.20;;;11.10;99.90;;;;;;5123175;27;20497;-60
2023/11/04 11:00:08;;;;;;;0.40;0.20;;;11.10;99.90;;;;;;5127905;27;21001;-61
2023/11/04 11:02:38;;;;;;;1.20;0.20;;;10.90;99.90;;;;;;5128121;27;21008;-61
2023/11/04 11:05:06;;;;;;;0.50;0.20;;;10.70;99.90;;;;;;5126309;27;20769;-59
2023/11/04 11:07:35;;;;;;;0.40;0.20;;;10.60;99.90;;;;;;5132062;27;20434;-59
2023/11/04 11:10:05;;;;;;;0.40;0.20;;;10.70;99.90;;;;;;5132029;27;20483;-59
2023/11/04 11:12:35;;;;;;;0.40;0.20;;;10.90;99.90;;;;;;5131554;27;20460;-59
2023/11/04 11:15:03;;;;;;;0.40;0.20;;;11.10;99.90;;;;;;5131869;27;20803;-57
2023/11/04 11:17:34;;;;;;;0.35;0.20;;;11.20;99.90;;;;;;5127842;27;20794;-58
2023/11/04 11:20:04;;;;;;;0.57;0.20;;;11.30;99.90;;;;;;5127499;27;20486;-57
2023/11/04 11:22:31;;;;;;;0.40;0.20;;;11.40;99.90;;;;;;5130699;27;20443;-59
2023/11/04 11:24:58;;;;;;;0.35;0.15;;;11.40;99.90;;;;;;5128488;27;20448;-57
2023/11/04 11:27:27;;;;;;;0.40;0.20;;;11.30;99.90;;;;;;5128422;27;20865;-57
2023/11/04 11:29:56;;;;;;;0.30;0.10;;;11.20;99.90;;;;;;5121765;27;20424;-57
2023/11/04 11:32:34;;;;;;;1.00;0.20;;;11.00;99.90;;;;;;5123069;27;20434;-57
2023/11/04 11:35:01;;;;;;;0.30;0.20;;;10.90;99.90;;;;;;5124359;27;20483;-58
2023/11/04 11:37:29;;;;;;;0.40;0.20;;;10.90;99.90;;;;;;5124394;27;20438;-59
2023/11/04 11:39:56;;;;;;;0.80;0.10;;;10.90;99.90;;;;;;5119781;27;20466;-59
2023/11/04 11:42:28;;;;;;;2.20;0.20;;;11.00;99.90;;;;;;5123749;27;20427;-58
2023/11/04 11:44:57;;;;;;;0.55;0.20;;;11.10;99.90;;;;;;5124434;27;20569;-58
2023/11/04 11:47:24;;;;;;;0.30;0.17;;;11.10;99.90;;;;;;5122101;27;20606;-58
2023/11/04 11:49:52;;;;;;;0.40;0.20;;;11.10;99.90;;;;;;5127882;27;20487;-58
2023/11/04 11:52:19;;;;;;;0.40;0.20;;;11.10;99.90;;;;;;5129981;27;20427;-59
2023/11/04 11:54:46;;;;;;;0.40;0.20;;;11.10;99.90;;;;;;5129999;27;20436;-59
2023/11/04 11:57:13;;;;;;;0.30;0.10;;;11.00;99.90;;;;;;5126384;27;20724;-59
2023/11/04 11:59:42;;;;;;;0.40;0.13;;;11.10;99.90;;;;;;5125615;27;20446;-58
2023/11/04 12:02:10;;;;;;;0.40;0.20;;;11.10;99.90;;;;;;5123002;27;20426;-59
2023/11/04 12:04:37;;;;;;;0.55;0.20;;;11.10;99.90;;;;;;5121780;27;20423;-58
2023/11/04 12:07:04;;;;;;;0.50;0.20;;;11.10;99.90;;;;;;5120460;27;20884;-58
2023/11/04 12:09:32;;;;;;;0.50;0.20;;;11.10;99.90;;;;;;5127156;27;20938;-59
2023/11/04 12:11:59;;;;;;;0.30;0.10;;;11.10;99.90;;;;;;5121243;27;20549;-59
2023/11/04 12:14:26;;;;;;;0.40;0.20;;;11.00;99.90;;;;;;5123136;27;20431;-59
2023/11/04 12:16:54;;;;;;;0.70;0.20;;;11.00;99.90;;;;;;5120436;27;20434;-58
2023/11/04 12:19:22;;;;;;;1.00;0.20;;;11.00;99.90;;;;;;5117998;27;20491;-59
2023/11/04 12:21:50;;;;;;;0.60;0.13;;;11.00;99.90;;;;;;5116469;27;20438;-59
2023/11/04 12:24:18;;;;;;;0.40;0.20;;;11.00;99.90;;;;;;5123618;27;20438;-59
2023/11/04 12:26:45;;;;;;;0.43;0.20;;;11.00;99.90;;;;;;5125514;27;20466;-60
2023/11/04 12:29:12;;;;;;;0.60;0.30;;;11.00;99.90;;;;;;5135406;27;20434;-59
2023/11/04 12:31:40;;;;;;;0.40;0.10;;;11.00;99.90;;;;;;5115523;27;20440;-59
2023/11/04 12:34:09;;;;;;;0.30;0.20;;;10.90;99.90;;;;;;5118784;27;20741;-59
2023/11/04 12:36:37;;;;;;;0.40;0.20;;;10.90;99.90;;;;;;5125859;27;20444;-60
2023/11/04 12:39:04;;;;;;;1.10;0.20;;;10.90;99.90;;;;;;5118147;27;20422;-60
2023/11/04 12:41:31;;;;;;;0.40;0.20;;;10.90;99.90;;;;;;5123453;27;20445;-60
2023/11/04 12:44:02;;;;;;;0.50;0.20;;;10.90;99.90;;;;;;5124965;27;20485;-59
2023/11/04 12:46:29;;;;;;;0.88;0.20;;;10.90;99.90;;;;;;5126563;27;20438;-59
2023/11/04 12:48:57;;;;;;;0.40;0.20;;;10.90;99.90;;;;;;5123367;27;20429;-60
2023/11/04 12:51:26;;;;;;;0.57;0.20;;;10.90;99.90;;;;;;5123387;27;20436;-60
2023/11/04 12:53:53;;;;;;;0.50;0.20;;;11.00;99.90;;;;;;5124727;27;20446;-60
2023/11/04 12:56:20;;;;;;;0.30;0.10;;;11.00;99.90;;;;;;5117176;27;20466;-59
2023/11/04 12:58:47;;;;;;;0.63;0.20;;;11.00;99.90;;;;;;5122916;27;20435;-59